sensor_id;sensor_type;location;lat;lon;timestamp;pressure;altitude;pressure_sealevel;temperature;humidity
14790;BME280;7486;51.010;10.366;2023-05-11T00:01:35;97830.31;;;9.69;78.81
14790;BME280;7486;51.010;10.366;2023-05-11T00:04:21;98047.16;;;11.04;79.13
14790;BME280;7486;51.010;10.366;2023-05-11T00:07:06;98040.03;;;11.04;79.30
14790;BME280;7486;51.010;10.366;2023-05-11T00:09:52;98042.25;;;11.07;79.31
14790;BME280;7486;51.010;10.366;2023-05-11T00:12:37;98041.44;;;11.07;79.39
14790;BME280;7486;51.010;10.366;2023-05-11T00:15:23;98041.25;;;11.08;79.44
14790;BME280;7486;51.010;10.366;2023-05-11T00:18:08;98044.91;;;11.07;79.25
14790;BME280;7486;51.010;10.366;2023-05-11T00:20:53;98038.78;;;11.07;79.51
14790;BME280;7486;51.010;10.366;2023-05-11T00:23:39;98039.84;;;11.06;79.65
14790;BME280;7486;51.010;10.366;2023-05-11T00:26:24;98037.19;;;11.06;79.20
14790;BME280;7486;51.010;10.366;2023-05-11T00:29:09;98038.19;;;11.05;79.29
14790;BME280;7486;51.010;10.366;2023-05-11T00:31:55;98038.19;;;11.05;79.20
14790;BME280;7486;51.010;10.366;2023-05-11T00:34:40;98033.91;;;11.04;79.29
14790;BME280;7486;51.010;10.366;2023-05-11T00:37:26;98031.25;;;11.04;79.26
14790;BME280;7486;51.010;10.366;2023-05-11T00:40:11;98035.75;;;11.03;79.57
14790;BME280;7486;51.010;10.366;2023-05-11T00:42:56;98034.72;;;11.04;79.91
14790;BME280;7486;51.010;10.366;2023-05-11T00:45:42;98017.09;;;10.92;79.72
14790;BME280;7486;51.010;10.366;2023-05-11T00:48:28;98033.91;;;11.04;79.85
14790;BME280;7486;51.010;10.366;2023-05-11T00:51:13;98019.72;;;10.92;79.62
14790;BME280;7486;51.010;10.366;2023-05-11T00:53:58;97960.22;;;10.56;80.21
14790;BME280;7486;51.010;10.366;2023-05-11T00:56:44;98033.31;;;11.02;80.00
14790;BME280;7486;51.010;10.366;2023-05-11T00:59:29;98038.63;;;11.02;79.70
14790;BME280;7486;51.010;10.366;2023-05-11T01:02:15;97972.63;;;10.56;80.01
14790;BME280;7486;51.010;10.366;2023-05-11T01:05:00;98036.03;;;10.95;80.07
14790;BME280;7486;51.010;10.366;2023-05-11T01:11:01;98024.38;;;10.96;80.32
14790;BME280;7486;51.010;10.366;2023-05-11T01:13:56;98040.88;;;10.98;80.31
14790;BME280;7486;51.010;10.366;2023-05-11T01:16:46;98034.97;;;10.96;80.19
14790;BME280;7486;51.010;10.366;2023-05-11T01:19:44;98030.97;;;10.87;80.57
14790;BME280;7486;51.010;10.366;2023-05-11T01:26:00;98037.06;;;10.88;81.62
14790;BME280;7486;51.010;10.366;2023-05-11T01:31:47;98035.59;;;10.98;81.04
14790;BME280;7486;51.010;10.366;2023-05-11T01:34:37;98033.31;;;11.02;80.72
14790;BME280;7486;51.010;10.366;2023-05-11T01:37:25;98031.25;;;11.04;80.43
14790;BME280;7486;51.010;10.366;2023-05-11T01:40:14;97998.78;;;10.84;80.31
14790;BME280;7486;51.010;10.366;2023-05-11T01:43:03;97957.75;;;10.61;80.25
14790;BME280;7486;51.010;10.366;2023-05-11T01:45:52;98031.50;;;11.02;80.40
14790;BME280;7486;51.010;10.366;2023-05-11T01:48:41;98030.69;;;11.02;80.67
14790;BME280;7486;51.010;10.366;2023-05-11T01:51:32;98029.03;;;11.01;80.85
14790;BME280;7486;51.010;10.366;2023-05-11T01:54:19;98036.22;;;10.94;81.12
14790;BME280;7486;51.010;10.366;2023-05-11T01:57:05;98009.59;;;10.76;81.93
14790;BME280;7486;51.010;10.366;2023-05-11T01:59:51;98017.56;;;10.82;81.99
14790;BME280;7486;51.010;10.366;2023-05-11T02:02:38;98040.50;;;10.95;81.95
14790;BME280;7486;51.010;10.366;2023-05-11T02:05:24;98036.22;;;10.94;81.98
14790;BME280;7486;51.010;10.366;2023-05-11T02:08:11;98041.53;;;10.94;81.79
14790;BME280;7486;51.010;10.366;2023-05-11T02:10:58;98037.84;;;10.95;81.53
14790;BME280;7486;51.010;10.366;2023-05-11T02:13:48;98038.28;;;10.92;81.70
14790;BME280;7486;51.010;10.366;2023-05-11T02:16:36;98029.56;;;10.85;81.44
14790;BME280;7486;51.010;10.366;2023-05-11T02:19:23;98045.63;;;10.90;81.80
14790;BME280;7486;51.010;10.366;2023-05-11T02:22:10;98002.53;;;10.69;82.12
14790;BME280;7486;51.010;10.366;2023-05-11T02:24:56;98038.44;;;10.97;82.02
14790;BME280;7486;51.010;10.366;2023-05-11T02:27:42;98042.13;;;10.96;82.05
14790;BME280;7486;51.010;10.366;2023-05-11T02:30:28;98017.50;;;10.89;82.23
14790;BME280;7486;51.010;10.366;2023-05-11T02:33:33;98030.50;;;10.97;82.16
14790;BME280;7486;51.010;10.366;2023-05-11T02:36:22;98012.66;;;10.79;81.69
14790;BME280;7486;51.010;10.366;2023-05-11T02:39:11;98025.06;;;10.85;82.18
14790;BME280;7486;51.010;10.366;2023-05-11T02:42:10;98032.97;;;10.92;82.34
14790;BME280;7486;51.010;10.366;2023-05-11T02:45:00;98021.19;;;10.88;82.03
14790;BME280;7486;51.010;10.366;2023-05-11T02:47:50;98033.56;;;10.94;81.64
14790;BME280;7486;51.010;10.366;2023-05-11T02:50:40;98033.38;;;10.95;81.99
14790;BME280;7486;51.010;10.366;2023-05-11T02:53:29;98028.88;;;10.96;81.62
14790;BME280;7486;51.010;10.366;2023-05-11T02:56:18;98025.41;;;10.95;81.62
14790;BME280;7486;51.010;10.366;2023-05-11T02:59:03;97995.97;;;10.79;81.70
14790;BME280;7486;51.010;10.366;2023-05-11T03:01:49;98030.72;;;10.95;81.83
14790;BME280;7486;51.010;10.366;2023-05-11T03:04:36;98022.97;;;10.94;81.77
14790;BME280;7486;51.010;10.366;2023-05-11T03:07:22;98026.44;;;10.94;81.43
14790;BME280;7486;51.010;10.366;2023-05-11T03:10:08;98036.22;;;10.94;81.31
14790;BME280;7486;51.010;10.366;2023-05-11T03:12:57;98030.09;;;10.93;81.74
14790;BME280;7486;51.010;10.366;2023-05-11T03:15:43;98025.63;;;10.94;81.67
14790;BME280;7486;51.010;10.366;2023-05-11T03:18:29;97983.00;;;10.64;81.45
14790;BME280;7486;51.010;10.366;2023-05-11T03:21:17;97954.53;;;10.46;81.78
14790;BME280;7486;51.010;10.366;2023-05-11T03:24:05;98027.69;;;10.92;81.97
14790;BME280;7486;51.010;10.366;2023-05-11T03:26:52;98036.66;;;10.91;82.17
14790;BME280;7486;51.010;10.366;2023-05-11T03:29:40;98023.59;;;10.89;82.04
14790;BME280;7486;51.010;10.366;2023-05-11T03:32:27;98018.09;;;10.91;82.44
14790;BME280;7486;51.010;10.366;2023-05-11T03:35:12;98027.69;;;10.92;82.02
14790;BME280;7486;51.010;10.366;2023-05-11T03:37:58;98019.50;;;10.93;81.79
14790;BME280;7486;51.010;10.366;2023-05-11T03:40:45;98026.25;;;10.96;82.11
14790;BME280;7486;51.010;10.366;2023-05-11T03:43:33;98012.22;;;10.89;81.68
14790;BME280;7486;51.010;10.366;2023-05-11T03:46:20;98022.97;;;10.94;81.91
14790;BME280;7486;51.010;10.366;2023-05-11T03:49:07;98017.47;;;10.95;81.69
14790;BME280;7486;51.010;10.366;2023-05-11T03:51:56;98024.16;;;10.98;81.83
14790;BME280;7486;51.010;10.366;2023-05-11T03:54:43;97971.97;;;10.67;81.82
14790;BME280;7486;51.010;10.366;2023-05-11T03:57:29;98021.13;;;10.94;82.01
14790;BME280;7486;51.010;10.366;2023-05-11T04:00:14;98015.03;;;10.94;82.37
14790;BME280;7486;51.010;10.366;2023-05-11T04:03:03;98021.72;;;10.96;82.50
14790;BME280;7486;51.010;10.366;2023-05-11T04:05:49;98020.31;;;10.94;82.61
14790;BME280;7486;51.010;10.366;2023-05-11T04:08:34;98018.28;;;10.96;82.23
14790;BME280;7486;51.010;10.366;2023-05-11T04:11:20;98024.38;;;10.96;82.32
14790;BME280;7486;51.010;10.366;2023-05-11T04:14:05;98015.41;;;10.97;82.27
14790;BME280;7486;51.010;10.366;2023-05-11T04:16:51;98007.31;;;10.92;82.32
14790;BME280;7486;51.010;10.366;2023-05-11T04:19:36;98018.88;;;10.98;82.24
14790;BME280;7486;51.010;10.366;2023-05-11T04:22:21;98021.56;;;10.91;82.24
14790;BME280;7486;51.010;10.366;2023-05-11T04:25:08;98027.88;;;10.90;82.80
14790;BME280;7486;51.010;10.366;2023-05-11T04:27:53;98027.69;;;10.92;82.44
14790;BME280;7486;51.010;10.366;2023-05-11T04:30:38;98028.50;;;10.86;82.74
14790;BME280;7486;51.010;10.366;2023-05-11T04:33:24;98021.56;;;10.91;83.07
14790;BME280;7486;51.010;10.366;2023-05-11T04:36:12;98029.47;;;10.98;82.25
14790;BME280;7486;51.010;10.366;2023-05-11T04:38:57;98028.03;;;11.02;82.18
14790;BME280;7486;51.010;10.366;2023-05-11T04:41:42;98014.88;;;10.89;82.13
14790;BME280;7486;51.010;10.366;2023-05-11T04:44:28;98009.56;;;10.89;82.09
14790;BME280;7486;51.010;10.366;2023-05-11T04:47:14;98029.88;;;11.01;82.47
14790;BME280;7486;51.010;10.366;2023-05-11T04:49:59;98027.22;;;11.01;82.48
14790;BME280;7486;51.010;10.366;2023-05-11T04:52:44;98025.22;;;10.90;82.89
14790;BME280;7486;51.010;10.366;2023-05-11T04:55:30;98029.28;;;10.93;83.46
14790;BME280;7486;51.010;10.366;2023-05-11T04:58:16;98032.16;;;10.91;83.26
14790;BME280;7486;51.010;10.366;2023-05-11T05:01:01;98029.72;;;10.90;83.64
14790;BME280;7486;51.010;10.366;2023-05-11T05:03:47;98028.66;;;10.97;83.72
14790;BME280;7486;51.010;10.366;2023-05-11T05:06:33;98028.06;;;10.95;83.29
14790;BME280;7486;51.010;10.366;2023-05-11T05:09:18;97965.47;;;10.63;83.33
14790;BME280;7486;51.010;10.366;2023-05-11T05:12:03;98029.44;;;11.04;83.46
14790;BME280;7486;51.010;10.366;2023-05-11T05:14:49;98030.03;;;11.06;83.77
14790;BME280;7486;51.010;10.366;2023-05-11T05:17:34;98036.91;;;11.14;83.56
14790;BME280;7486;51.010;10.366;2023-05-11T05:20:20;98021.28;;;10.99;83.14
14790;BME280;7486;51.010;10.366;2023-05-11T05:23:05;98034.25;;;11.14;83.59
14790;BME280;7486;51.010;10.366;2023-05-11T05:25:51;98034.88;;;11.16;83.02
14790;BME280;7486;51.010;10.366;2023-05-11T05:28:37;98023.06;;;11.12;83.32
14790;BME280;7486;51.010;10.366;2023-05-11T05:31:23;98041.81;;;11.10;83.36
14790;BME280;7486;51.010;10.366;2023-05-11T05:34:08;98040.50;;;10.95;82.73
14790;BME280;7486;51.010;10.366;2023-05-11T05:36:54;98044.47;;;10.72;85.45
14790;BME280;7486;51.010;10.366;2023-05-11T05:39:40;98040.31;;;10.90;84.84
14790;BME280;7486;51.010;10.366;2023-05-11T05:42:26;98039.50;;;10.89;84.66
14790;BME280;7486;51.010;10.366;2023-05-11T05:45:12;98053.66;;;11.08;84.87
14790;BME280;7486;51.010;10.366;2023-05-11T05:47:59;98042.13;;;10.96;84.57
14790;BME280;7486;51.010;10.366;2023-05-11T05:50:45;98051.00;;;10.70;86.85
14790;BME280;7486;51.010;10.366;2023-05-11T05:53:31;98050.91;;;10.90;86.05
14790;BME280;7486;51.010;10.366;2023-05-11T05:56:16;98061.00;;;10.75;87.03
14790;BME280;7486;51.010;10.366;2023-05-11T05:59:02;98052.63;;;10.78;87.44
14790;BME280;7486;51.010;10.366;2023-05-11T06:01:49;98044.97;;;10.56;88.38
14790;BME280;7486;51.010;10.366;2023-05-11T06:04:35;98061.50;;;10.90;87.42
14790;BME280;7486;51.010;10.366;2023-05-11T06:07:21;98063.53;;;10.94;87.29
14790;BME280;7486;51.010;10.366;2023-05-11T06:10:07;98055.31;;;11.09;86.54
14790;BME280;7486;51.010;10.366;2023-05-11T06:12:52;98061.28;;;11.29;85.99
14790;BME280;7486;51.010;10.366;2023-05-11T06:15:39;98001.25;;;10.79;85.92
14790;BME280;7486;51.010;10.366;2023-05-11T06:18:39;98047.34;;;11.40;86.24
14790;BME280;7486;51.010;10.366;2023-05-11T06:21:25;98052.16;;;11.56;85.25
14790;BME280;7486;51.010;10.366;2023-05-11T06:24:10;98048.84;;;11.54;84.57
14790;BME280;7486;51.010;10.366;2023-05-11T06:26:58;98051.13;;;11.57;84.66
14790;BME280;7486;51.010;10.366;2023-05-11T06:29:44;98051.31;;;11.56;84.18
14790;BME280;7486;51.010;10.366;2023-05-11T06:32:30;98047.94;;;11.42;84.56
14790;BME280;7486;51.010;10.366;2023-05-11T06:35:16;98036.88;;;11.20;85.48
14790;BME280;7486;51.010;10.366;2023-05-11T06:38:02;98061.19;;;11.42;85.71
14790;BME280;7486;51.010;10.366;2023-05-11T06:40:53;98050.97;;;11.46;85.38
14790;BME280;7486;51.010;10.366;2023-05-11T06:43:39;98056.44;;;11.57;85.10
14790;BME280;7486;51.010;10.366;2023-05-11T06:46:35;98054.16;;;11.54;84.54
14790;BME280;7486;51.010;10.366;2023-05-11T06:49:21;98051.84;;;11.64;84.73
14790;BME280;7486;51.010;10.366;2023-05-11T06:52:07;98055.94;;;11.67;84.47
14790;BME280;7486;51.010;10.366;2023-05-11T06:54:52;98056.47;;;11.76;84.34
14790;BME280;7486;51.010;10.366;2023-05-11T06:57:38;98052.09;;;11.88;84.25
14790;BME280;7486;51.010;10.366;2023-05-11T07:00:24;98064.03;;;11.97;83.50
14790;BME280;7486;51.010;10.366;2023-05-11T07:03:09;98061.25;;;11.92;84.07
14790;BME280;7486;51.010;10.366;2023-05-11T07:05:55;98065.28;;;11.94;83.78
14790;BME280;7486;51.010;10.366;2023-05-11T07:08:41;98061.38;;;11.97;83.62
14790;BME280;7486;51.010;10.366;2023-05-11T07:11:26;98063.22;;;11.96;83.45
14790;BME280;7486;51.010;10.366;2023-05-11T07:14:12;98058.69;;;11.79;84.30
14790;BME280;7486;51.010;10.366;2023-05-11T07:16:57;98058.72;;;11.97;84.15
14790;BME280;7486;51.010;10.366;2023-05-11T07:19:43;98059.47;;;12.04;83.60
14790;BME280;7486;51.010;10.366;2023-05-11T07:22:28;97997.06;;;11.52;85.29
14790;BME280;7486;51.010;10.366;2023-05-11T07:25:14;98039.88;;;12.05;84.67
14790;BME280;7486;51.010;10.366;2023-05-11T07:27:59;98054.91;;;12.11;85.35
14790;BME280;7486;51.010;10.366;2023-05-11T07:30:46;98062.16;;;12.22;86.19
14790;BME280;7486;51.010;10.366;2023-05-11T07:33:31;98057.13;;;12.14;85.28
14790;BME280;7486;51.010;10.366;2023-05-11T07:36:16;98062.47;;;12.32;85.20
14790;BME280;7486;51.010;10.366;2023-05-11T07:39:01;98056.25;;;12.38;85.77
14790;BME280;7486;51.010;10.366;2023-05-11T07:41:47;98058.44;;;12.66;84.03
14790;BME280;7486;51.010;10.366;2023-05-11T07:44:32;98055.97;;;12.64;82.46
14790;BME280;7486;51.010;10.366;2023-05-11T07:47:18;98059.38;;;12.71;82.35
14790;BME280;7486;51.010;10.366;2023-05-11T07:50:03;98037.25;;;12.59;81.53
14790;BME280;7486;51.010;10.366;2023-05-11T07:52:49;98054.78;;;12.60;83.51
14790;BME280;7486;51.010;10.366;2023-05-11T07:55:34;98057.13;;;12.50;82.43
14790;BME280;7486;51.010;10.366;2023-05-11T07:58:19;98048.94;;;12.52;84.39
14790;BME280;7486;51.010;10.366;2023-05-11T08:01:05;98062.19;;;12.77;83.83
14790;BME280;7486;51.010;10.366;2023-05-11T08:03:50;98061.81;;;12.73;83.14
14790;BME280;7486;51.010;10.366;2023-05-11T08:06:35;98048.00;;;12.83;82.25
14790;BME280;7486;51.010;10.366;2023-05-11T08:09:21;98052.75;;;12.92;80.68
14790;BME280;7486;51.010;10.366;2023-05-11T08:12:06;98055.66;;;12.91;79.52
14790;BME280;7486;51.010;10.366;2023-05-11T08:14:52;98060.81;;;12.86;80.53
14790;BME280;7486;51.010;10.366;2023-05-11T08:17:38;98044.03;;;13.03;81.99
14790;BME280;7486;51.010;10.366;2023-05-11T08:20:23;98050.91;;;13.22;79.72
14790;BME280;7486;51.010;10.366;2023-05-11T08:23:09;98026.25;;;13.15;79.65
14790;BME280;7486;51.010;10.366;2023-05-11T08:25:54;98049.06;;;13.23;78.52
14790;BME280;7486;51.010;10.366;2023-05-11T08:28:40;97965.28;;;12.91;80.14
14790;BME280;7486;51.010;10.366;2023-05-11T08:31:25;98047.44;;;13.52;78.96
14790;BME280;7486;51.010;10.366;2023-05-11T08:34:11;98052.06;;;13.15;79.81
14790;BME280;7486;51.010;10.366;2023-05-11T08:37:04;98047.97;;;13.12;78.52
14790;BME280;7486;51.010;10.366;2023-05-11T08:39:49;98051.97;;;13.33;77.39
14790;BME280;7486;51.010;10.366;2023-05-11T08:42:35;98051.72;;;13.23;77.66
14790;BME280;7486;51.010;10.366;2023-05-11T08:45:24;98051.47;;;13.54;78.42
14790;BME280;7486;51.010;10.366;2023-05-11T08:48:10;98053.78;;;13.51;77.70
14790;BME280;7486;51.010;10.366;2023-05-11T08:50:56;98006.66;;;13.28;77.21
14790;BME280;7486;51.010;10.366;2023-05-11T08:53:41;98032.03;;;13.12;76.03
14790;BME280;7486;51.010;10.366;2023-05-11T08:56:28;98049.19;;;13.28;77.42
14790;BME280;7486;51.010;10.366;2023-05-11T08:59:14;98054.78;;;13.38;76.79
14790;BME280;7486;51.010;10.366;2023-05-11T09:02:00;98012.78;;;12.87;75.81
14790;BME280;7486;51.010;10.366;2023-05-11T09:04:46;98049.94;;;12.39;81.15
14790;BME280;7486;51.010;10.366;2023-05-11T09:07:35;98054.69;;;12.12;81.62
14790;BME280;7486;51.010;10.366;2023-05-11T09:10:20;98049.94;;;12.57;79.19
14790;BME280;7486;51.010;10.366;2023-05-11T09:13:06;98054.34;;;12.27;81.00
14790;BME280;7486;51.010;10.366;2023-05-11T09:15:51;98050.88;;;12.08;81.73
14790;BME280;7486;51.010;10.366;2023-05-11T09:18:48;98054.69;;;11.69;83.18
14790;BME280;7486;51.010;10.366;2023-05-11T09:21:37;98053.53;;;11.84;85.10
14790;BME280;7486;51.010;10.366;2023-05-11T09:24:22;98054.81;;;11.99;82.78
14790;BME280;7486;51.010;10.366;2023-05-11T09:27:08;98047.97;;;12.10;83.17
14790;BME280;7486;51.010;10.366;2023-05-11T09:29:54;98052.56;;;12.21;82.58
14790;BME280;7486;51.010;10.366;2023-05-11T09:32:53;98014.13;;;11.87;83.97
14790;BME280;7486;51.010;10.366;2023-05-11T09:35:41;98047.09;;;11.98;82.79
14790;BME280;7486;51.010;10.366;2023-05-11T09:38:26;98048.41;;;12.07;83.67
14790;BME280;7486;51.010;10.366;2023-05-11T09:41:18;98050.06;;;12.08;85.82
14790;BME280;7486;51.010;10.366;2023-05-11T09:44:12;98046.69;;;12.19;85.19
14790;BME280;7486;51.010;10.366;2023-05-11T09:47:09;98041.88;;;12.46;84.96
14790;BME280;7486;51.010;10.366;2023-05-11T09:49:55;98050.56;;;12.71;83.62
14790;BME280;7486;51.010;10.366;2023-05-11T09:52:49;98047.44;;;12.62;80.53
14790;BME280;7486;51.010;10.366;2023-05-11T09:55:34;98046.66;;;12.55;80.95
14790;BME280;7486;51.010;10.366;2023-05-11T09:58:20;98043.06;;;12.68;81.05
14790;BME280;7486;51.010;10.366;2023-05-11T10:01:06;97983.53;;;11.85;82.20
14790;BME280;7486;51.010;10.366;2023-05-11T10:03:51;98044.59;;;12.21;82.16
14790;BME280;7486;51.010;10.366;2023-05-11T10:06:48;98051.03;;;12.50;79.96
14790;BME280;7486;51.010;10.366;2023-05-11T10:09:33;97923.88;;;11.87;80.97
14790;BME280;7486;51.010;10.366;2023-05-11T10:12:21;98043.75;;;12.63;81.20
14790;BME280;7486;51.010;10.366;2023-05-11T10:15:08;98011.09;;;12.20;81.53
14790;BME280;7486;51.010;10.366;2023-05-11T10:17:54;98034.94;;;12.08;83.46
14790;BME280;7486;51.010;10.366;2023-05-11T10:20:40;98040.94;;;12.22;83.08
14790;BME280;7486;51.010;10.366;2023-05-11T10:23:25;98032.13;;;12.40;84.33
14790;BME280;7486;51.010;10.366;2023-05-11T10:26:11;97984.69;;;12.61;82.70
14790;BME280;7486;51.010;10.366;2023-05-11T10:29:00;98029.06;;;12.91;81.17
14790;BME280;7486;51.010;10.366;2023-05-11T10:31:47;98030.56;;;12.87;81.11
14790;BME280;7486;51.010;10.366;2023-05-11T10:34:33;98020.72;;;13.17;80.15
14790;BME280;7486;51.010;10.366;2023-05-11T10:37:20;98023.88;;;13.37;79.77
14790;BME280;7486;51.010;10.366;2023-05-11T10:40:06;98020.25;;;13.61;78.35
14790;BME280;7486;51.010;10.366;2023-05-11T10:58:09;98015.75;;;13.97;76.39
14790;BME280;7486;51.010;10.366;2023-05-11T11:04:04;98012.28;;;13.96;74.87
14790;BME280;7486;51.010;10.366;2023-05-11T11:07:05;98001.75;;;13.90;74.23
14790;BME280;7486;51.010;10.366;2023-05-11T11:09:53;98020.09;;;14.14;75.34
14790;BME280;7486;51.010;10.366;2023-05-11T11:12:39;97992.47;;;13.92;72.60
14790;BME280;7486;51.010;10.366;2023-05-11T11:18:39;98015.72;;;13.73;73.16
14790;BME280;7486;51.010;10.366;2023-05-11T11:21:41;98019.31;;;13.67;74.83
14790;BME280;7486;51.010;10.366;2023-05-11T11:30:30;98024.19;;;12.88;80.23
14790;BME280;7486;51.010;10.366;2023-05-11T11:36:01;98019.28;;;12.37;84.11
14790;BME280;7486;51.010;10.366;2023-05-11T11:38:57;98022.91;;;12.24;84.79
14790;BME280;7486;51.010;10.366;2023-05-11T11:41:43;98024.47;;;12.32;85.50
14790;BME280;7486;51.010;10.366;2023-05-11T11:44:28;97998.56;;;12.45;86.34
14790;BME280;7486;51.010;10.366;2023-05-11T11:47:21;98022.06;;;12.78;85.34
14790;BME280;7486;51.010;10.366;2023-05-11T11:50:10;98018.00;;;12.94;84.87
14790;BME280;7486;51.010;10.366;2023-05-11T11:52:55;98025.44;;;12.85;84.34
14790;BME280;7486;51.010;10.366;2023-05-11T11:55:49;97965.06;;;12.44;86.16
14790;BME280;7486;51.010;10.366;2023-05-11T12:01:28;98019.81;;;13.23;83.86
14790;BME280;7486;51.010;10.366;2023-05-11T12:04:37;98015.09;;;13.25;82.09
14790;BME280;7486;51.010;10.366;2023-05-11T12:07:24;98021.00;;;12.97;83.47
14790;BME280;7486;51.010;10.366;2023-05-11T12:10:12;98016.06;;;13.01;82.80
14790;BME280;7486;51.010;10.366;2023-05-11T12:12:58;98015.50;;;13.22;83.39
14790;BME280;7486;51.010;10.366;2023-05-11T12:15:44;97977.13;;;13.18;82.36
14790;BME280;7486;51.010;10.366;2023-05-11T12:18:29;98021.66;;;13.76;79.41
14790;BME280;7486;51.010;10.366;2023-05-11T12:21:18;98020.03;;;13.74;76.82
14790;BME280;7486;51.010;10.366;2023-05-11T12:24:04;98022.66;;;13.10;80.49
14790;BME280;7486;51.010;10.366;2023-05-11T12:26:54;98013.50;;;12.94;78.90
14790;BME280;7486;51.010;10.366;2023-05-11T12:29:39;97971.28;;;12.56;82.16
14790;BME280;7486;51.010;10.366;2023-05-11T12:32:26;98014.63;;;12.98;82.85
14790;BME280;7486;51.010;10.366;2023-05-11T12:35:12;98010.03;;;12.94;82.46
14790;BME280;7486;51.010;10.366;2023-05-11T12:37:59;97956.06;;;12.63;82.84
14790;BME280;7486;51.010;10.366;2023-05-11T12:40:49;98007.94;;;12.96;83.18
14790;BME280;7486;51.010;10.366;2023-05-11T12:43:35;98005.31;;;13.07;83.12
14790;BME280;7486;51.010;10.366;2023-05-11T12:46:21;97986.97;;;13.17;82.90
14790;BME280;7486;51.010;10.366;2023-05-11T12:49:08;98001.78;;;13.37;82.44
14790;BME280;7486;51.010;10.366;2023-05-11T12:52:04;98002.41;;;13.50;81.77
14790;BME280;7486;51.010;10.366;2023-05-11T12:54:50;97977.31;;;13.05;81.45
14790;BME280;7486;51.010;10.366;2023-05-11T12:57:36;98001.56;;;13.50;81.64
14790;BME280;7486;51.010;10.366;2023-05-11T13:00:21;98007.22;;;13.30;82.13
14790;BME280;7486;51.010;10.366;2023-05-11T13:03:09;98006.53;;;13.46;81.84
14790;BME280;7486;51.010;10.366;2023-05-11T13:06:11;98007.16;;;13.60;79.75
14790;BME280;7486;51.010;10.366;2023-05-11T13:08:56;98010.00;;;13.35;80.13
14790;BME280;7486;51.010;10.366;2023-05-11T13:11:41;98015.09;;;13.25;80.94
14790;BME280;7486;51.010;10.366;2023-05-11T13:14:30;98009.00;;;13.06;81.67
14790;BME280;7486;51.010;10.366;2023-05-11T13:17:32;98003.09;;;12.74;84.07
14790;BME280;7486;51.010;10.366;2023-05-11T13:20:26;98005.09;;;12.79;83.59
14790;BME280;7486;51.010;10.366;2023-05-11T13:23:13;97999.56;;;12.81;83.79
14790;BME280;7486;51.010;10.366;2023-05-11T13:25:59;97999.31;;;12.34;85.92
14790;BME280;7486;51.010;10.366;2023-05-11T13:28:45;97984.09;;;11.87;88.88
14790;BME280;7486;51.010;10.366;2023-05-11T13:31:48;97928.81;;;11.65;89.47
14790;BME280;7486;51.010;10.366;2023-05-11T13:34:34;97989.34;;;12.30;90.14
14790;BME280;7486;51.010;10.366;2023-05-11T13:37:19;98000.66;;;12.25;88.59
14790;BME280;7486;51.010;10.366;2023-05-11T13:40:05;97967.22;;;12.36;86.03
14790;BME280;7486;51.010;10.366;2023-05-11T13:42:51;97981.91;;;12.56;85.22
14790;BME280;7486;51.010;10.366;2023-05-11T13:45:36;97991.53;;;12.51;87.24
14790;BME280;7486;51.010;10.366;2023-05-11T13:48:22;97997.78;;;12.74;84.79
14790;BME280;7486;51.010;10.366;2023-05-11T13:51:10;97991.16;;;12.95;84.12
14790;BME280;7486;51.010;10.366;2023-05-11T13:53:56;97995.28;;;13.21;81.67
14790;BME280;7486;51.010;10.366;2023-05-11T13:56:41;97931.44;;;12.56;81.96
14790;BME280;7486;51.010;10.366;2023-05-11T13:59:27;97996.28;;;12.97;82.05
14790;BME280;7486;51.010;10.366;2023-05-11T14:02:12;97988.41;;;13.02;84.55
14790;BME280;7486;51.010;10.366;2023-05-11T14:04:57;97955.50;;;13.14;82.72
14790;BME280;7486;51.010;10.366;2023-05-11T14:07:42;97989.97;;;13.33;82.05
14790;BME280;7486;51.010;10.366;2023-05-11T14:10:33;97981.53;;;13.36;82.23
14790;BME280;7486;51.010;10.366;2023-05-11T14:13:18;97977.31;;;13.58;80.14
14790;BME280;7486;51.010;10.366;2023-05-11T14:16:04;97976.50;;;13.57;79.92
14790;BME280;7486;51.010;10.366;2023-05-11T14:18:49;97975.09;;;13.66;80.72
14790;BME280;7486;51.010;10.366;2023-05-11T14:21:35;97976.75;;;13.67;80.55
14790;BME280;7486;51.010;10.366;2023-05-11T14:24:20;97992.72;;;13.56;81.35
14790;BME280;7486;51.010;10.366;2023-05-11T14:27:06;97982.75;;;13.74;79.61
14790;BME280;7486;51.010;10.366;2023-05-11T14:29:51;97986.81;;;13.89;79.75
14790;BME280;7486;51.010;10.366;2023-05-11T14:32:36;97982.28;;;13.78;78.97
14790;BME280;7486;51.010;10.366;2023-05-11T14:35:22;97971.09;;;13.52;79.48
14790;BME280;7486;51.010;10.366;2023-05-11T14:38:07;97984.13;;;13.42;80.92
14790;BME280;7486;51.010;10.366;2023-05-11T14:40:53;97990.13;;;13.38;82.97
14790;BME280;7486;51.010;10.366;2023-05-11T14:43:40;97976.94;;;13.31;82.33
14790;BME280;7486;51.010;10.366;2023-05-11T14:46:26;97981.16;;;13.62;81.86
14790;BME280;7486;51.010;10.366;2023-05-11T14:49:11;97976.75;;;13.56;79.17
14790;BME280;7486;51.010;10.366;2023-05-11T14:51:57;97975.47;;;13.58;80.49
14790;BME280;7486;51.010;10.366;2023-05-11T14:54:42;97973.75;;;13.76;79.63
14790;BME280;7486;51.010;10.366;2023-05-11T14:57:28;97973.25;;;14.02;78.33
14790;BME280;7486;51.010;10.366;2023-05-11T15:00:14;97976.38;;;13.99;77.42
14790;BME280;7486;51.010;10.366;2023-05-11T15:02:59;97970.69;;;14.07;78.78
14790;BME280;7486;51.010;10.366;2023-05-11T15:05:45;97973.13;;;14.08;78.18
14790;BME280;7486;51.010;10.366;2023-05-11T15:08:30;97976.16;;;14.00;78.91
14790;BME280;7486;51.010;10.366;2023-05-11T15:11:19;97972.47;;;13.90;80.58
14790;BME280;7486;51.010;10.366;2023-05-11T15:14:05;97968.72;;;13.91;80.77
14790;BME280;7486;51.010;10.366;2023-05-11T15:16:52;97977.34;;;13.69;79.49
14790;BME280;7486;51.010;10.366;2023-05-11T15:19:38;97983.44;;;13.82;79.59
14790;BME280;7486;51.010;10.366;2023-05-11T15:22:23;97982.63;;;13.81;78.72
14790;BME280;7486;51.010;10.366;2023-05-11T15:25:08;97987.28;;;13.86;80.76
14790;BME280;7486;51.010;10.366;2023-05-11T15:27:55;97990.63;;;13.81;82.55